sensor_id;sensor_type;location;lat;lon;timestamp;P1;durP1;ratioP1;P2;durP2;ratioP2
37411;SDS011;23278;52.110;6.050;2022-12-20T00:02:15;2.72;;;1.98;;
37411;SDS011;23278;52.110;6.050;2022-12-20T00:04:42;3.80;;;1.77;;
37411;SDS011;23278;52.110;6.050;2022-12-20T00:07:08;3.22;;;1.70;;
37411;SDS011;23278;52.110;6.050;2022-12-20T00:09:34;3.05;;;1.58;;
37411;SDS011;23278;52.110;6.050;2022-12-20T00:12:00;2.53;;;1.60;;
37411;SDS011;23278;52.110;6.050;2022-12-20T00:14:26;2.95;;;1.40;;
37411;SDS011;23278;52.110;6.050;2022-12-20T00:16:52;1.90;;;1.23;;
37411;SDS011;23278;52.110;6.050;2022-12-20T00:19:19;2.15;;;1.15;;
37411;SDS011;23278;52.110;6.050;2022-12-20T00:21:45;3.22;;;1.50;;
37411;SDS011;23278;52.110;6.050;2022-12-20T00:24:11;3.90;;;1.48;;
37411;SDS011;23278;52.110;6.050;2022-12-20T00:26:37;3.03;;;1.10;;
37411;SDS011;23278;52.110;6.050;2022-12-20T00:29:03;5.90;;;1.75;;
37411;SDS011;23278;52.110;6.050;2022-12-20T00:31:30;3.85;;;1.17;;
37411;SDS011;23278;52.110;6.050;2022-12-20T00:33:57;3.70;;;1.17;;
37411;SDS011;23278;52.110;6.050;2022-12-20T00:36:25;1.92;;;1.25;;
37411;SDS011;23278;52.110;6.050;2022-12-20T00:38:53;2.70;;;1.40;;
37411;SDS011;23278;52.110;6.050;2022-12-20T00:41:21;1.35;;;0.95;;
37411;SDS011;23278;52.110;6.050;2022-12-20T00:43:50;2.65;;;1.52;;
37411;SDS011;23278;52.110;6.050;2022-12-20T00:46:17;1.65;;;1.40;;
37411;SDS011;23278;52.110;6.050;2022-12-20T00:48:45;6.28;;;1.30;;
37411;SDS011;23278;52.110;6.050;2022-12-20T00:51:12;2.42;;;1.35;;
37411;SDS011;23278;52.110;6.050;2022-12-20T00:53:40;1.58;;;0.90;;
37411;SDS011;23278;52.110;6.050;2022-12-20T00:56:07;4.63;;;1.42;;
37411;SDS011;23278;52.110;6.050;2022-12-20T00:58:34;3.38;;;1.38;;
37411;SDS011;23278;52.110;6.050;2022-12-20T01:01:02;1.25;;;0.85;;
37411;SDS011;23278;52.110;6.050;2022-12-20T01:03:29;3.08;;;1.42;;
37411;SDS011;23278;52.110;6.050;2022-12-20T01:05:57;3.72;;;1.40;;
37411;SDS011;23278;52.110;6.050;2022-12-20T01:08:25;3.85;;;1.30;;
37411;SDS011;23278;52.110;6.050;2022-12-20T01:11:02;2.15;;;1.20;;
37411;SDS011;23278;52.110;6.050;2022-12-20T01:13:31;3.65;;;1.42;;
37411;SDS011;23278;52.110;6.050;2022-12-20T01:16:08;1.90;;;1.10;;
37411;SDS011;23278;52.110;6.050;2022-12-20T01:18:37;2.50;;;1.05;;
37411;SDS011;23278;52.110;6.050;2022-12-20T01:21:04;3.17;;;1.30;;
37411;SDS011;23278;52.110;6.050;2022-12-20T01:23:33;2.63;;;1.58;;
37411;SDS011;23278;52.110;6.050;2022-12-20T01:25:59;2.72;;;1.00;;
37411;SDS011;23278;52.110;6.050;2022-12-20T01:28:29;2.72;;;1.27;;
37411;SDS011;23278;52.110;6.050;2022-12-20T01:30:56;4.85;;;1.23;;
37411;SDS011;23278;52.110;6.050;2022-12-20T01:33:22;2.70;;;1.33;;
37411;SDS011;23278;52.110;6.050;2022-12-20T01:35:58;4.00;;;1.38;;
37411;SDS011;23278;52.110;6.050;2022-12-20T01:38:26;2.92;;;1.20;;
37411;SDS011;23278;52.110;6.050;2022-12-20T01:40:53;2.60;;;1.40;;
37411;SDS011;23278;52.110;6.050;2022-12-20T01:43:20;3.80;;;1.20;;
37411;SDS011;23278;52.110;6.050;2022-12-20T01:45:46;1.73;;;0.90;;
37411;SDS011;23278;52.110;6.050;2022-12-20T01:48:14;3.70;;;1.00;;
37411;SDS011;23278;52.110;6.050;2022-12-20T01:50:44;1.58;;;1.00;;
37411;SDS011;23278;52.110;6.050;2022-12-20T01:53:11;6.30;;;1.25;;
37411;SDS011;23278;52.110;6.050;2022-12-20T01:55:37;3.47;;;1.30;;
37411;SDS011;23278;52.110;6.050;2022-12-20T01:58:09;3.83;;;2.50;;
37411;SDS011;23278;52.110;6.050;2022-12-20T02:00:37;3.60;;;1.80;;
37411;SDS011;23278;52.110;6.050;2022-12-20T02:03:06;4.55;;;1.70;;
37411;SDS011;23278;52.110;6.050;2022-12-20T02:05:37;2.75;;;1.67;;
37411;SDS011;23278;52.110;6.050;2022-12-20T02:08:09;1.40;;;1.20;;
37411;SDS011;23278;52.110;6.050;2022-12-20T02:13:46;6.82;;;1.90;;
37411;SDS011;23278;52.110;6.050;2022-12-20T02:16:29;4.30;;;1.55;;
37411;SDS011;23278;52.110;6.050;2022-12-20T02:19:08;3.88;;;1.88;;
37411;SDS011;23278;52.110;6.050;2022-12-20T02:22:00;4.72;;;2.00;;
37411;SDS011;23278;52.110;6.050;2022-12-20T02:24:53;2.85;;;1.55;;
37411;SDS011;23278;52.110;6.050;2022-12-20T02:30:41;5.35;;;3.10;;
37411;SDS011;23278;52.110;6.050;2022-12-20T02:33:12;5.30;;;2.10;;
37411;SDS011;23278;52.110;6.050;2022-12-20T02:35:39;2.35;;;2.10;;
37411;SDS011;23278;52.110;6.050;2022-12-20T02:38:28;7.45;;;2.70;;
37411;SDS011;23278;52.110;6.050;2022-12-20T02:41:19;3.28;;;1.92;;
37411;SDS011;23278;52.110;6.050;2022-12-20T02:43:48;6.43;;;3.15;;
37411;SDS011;23278;52.110;6.050;2022-12-20T02:46:39;3.17;;;2.50;;
37411;SDS011;23278;52.110;6.050;2022-12-20T02:49:14;3.85;;;2.38;;
37411;SDS011;23278;52.110;6.050;2022-12-20T02:51:43;5.45;;;3.00;;
37411;SDS011;23278;52.110;6.050;2022-12-20T02:54:12;3.78;;;2.95;;
37411;SDS011;23278;52.110;6.050;2022-12-20T02:57:41;5.65;;;3.38;;
37411;SDS011;23278;52.110;6.050;2022-12-20T02:59:44;4.40;;;3.00;;
37411;SDS011;23278;52.110;6.050;2022-12-20T03:02:32;8.25;;;4.82;;
37411;SDS011;23278;52.110;6.050;2022-12-20T03:05:21;6.90;;;4.05;;
37411;SDS011;23278;52.110;6.050;2022-12-20T03:07:49;5.07;;;3.55;;
37411;SDS011;23278;52.110;6.050;2022-12-20T03:10:18;3.95;;;3.13;;
37411;SDS011;23278;52.110;6.050;2022-12-20T03:12:45;5.50;;;3.03;;
37411;SDS011;23278;52.110;6.050;2022-12-20T03:15:10;5.85;;;3.67;;
37411;SDS011;23278;52.110;6.050;2022-12-20T03:17:36;6.55;;;4.20;;
37411;SDS011;23278;52.110;6.050;2022-12-20T03:20:03;6.90;;;3.30;;
37411;SDS011;23278;52.110;6.050;2022-12-20T03:22:31;4.75;;;3.33;;
37411;SDS011;23278;52.110;6.050;2022-12-20T03:24:58;5.10;;;3.78;;
37411;SDS011;23278;52.110;6.050;2022-12-20T03:27:24;3.80;;;3.42;;
37411;SDS011;23278;52.110;6.050;2022-12-20T03:29:52;9.65;;;5.18;;
37411;SDS011;23278;52.110;6.050;2022-12-20T03:32:19;7.65;;;3.70;;
37411;SDS011;23278;52.110;6.050;2022-12-20T03:34:45;7.13;;;4.03;;
37411;SDS011;23278;52.110;6.050;2022-12-20T03:37:12;7.22;;;4.63;;
37411;SDS011;23278;52.110;6.050;2022-12-20T03:39:38;4.97;;;3.65;;
37411;SDS011;23278;52.110;6.050;2022-12-20T03:42:06;5.22;;;4.32;;
37411;SDS011;23278;52.110;6.050;2022-12-20T03:44:32;8.57;;;4.07;;
37411;SDS011;23278;52.110;6.050;2022-12-20T03:46:58;7.10;;;3.90;;
37411;SDS011;23278;52.110;6.050;2022-12-20T03:49:25;5.85;;;4.40;;
37411;SDS011;23278;52.110;6.050;2022-12-20T03:51:51;5.88;;;4.13;;
37411;SDS011;23278;52.110;6.050;2022-12-20T03:54:17;7.80;;;4.93;;
37411;SDS011;23278;52.110;6.050;2022-12-20T03:57:09;8.30;;;5.30;;
37411;SDS011;23278;52.110;6.050;2022-12-20T03:59:35;5.82;;;4.72;;
37411;SDS011;23278;52.110;6.050;2022-12-20T04:02:03;7.97;;;3.88;;
37411;SDS011;23278;52.110;6.050;2022-12-20T04:04:29;7.85;;;3.80;;
37411;SDS011;23278;52.110;6.050;2022-12-20T04:06:55;7.55;;;4.65;;
37411;SDS011;23278;52.110;6.050;2022-12-20T04:09:21;4.80;;;3.85;;
37411;SDS011;23278;52.110;6.050;2022-12-20T04:11:52;5.07;;;4.05;;
37411;SDS011;23278;52.110;6.050;2022-12-20T04:14:18;5.88;;;4.30;;
37411;SDS011;23278;52.110;6.050;2022-12-20T04:16:44;7.30;;;4.88;;
37411;SDS011;23278;52.110;6.050;2022-12-20T04:19:11;6.43;;;3.85;;
37411;SDS011;23278;52.110;6.050;2022-12-20T04:21:41;6.78;;;4.43;;
37411;SDS011;23278;52.110;6.050;2022-12-20T04:24:07;6.72;;;4.68;;
37411;SDS011;23278;52.110;6.050;2022-12-20T04:26:44;9.23;;;5.22;;
37411;SDS011;23278;52.110;6.050;2022-12-20T04:29:11;5.97;;;4.15;;
37411;SDS011;23278;52.110;6.050;2022-12-20T04:31:39;5.30;;;4.25;;
37411;SDS011;23278;52.110;6.050;2022-12-20T04:34:05;7.97;;;5.25;;
37411;SDS011;23278;52.110;6.050;2022-12-20T04:36:32;6.28;;;4.00;;
37411;SDS011;23278;52.110;6.050;2022-12-20T04:39:01;8.13;;;4.70;;
37411;SDS011;23278;52.110;6.050;2022-12-20T04:41:33;6.28;;;4.43;;
37411;SDS011;23278;52.110;6.050;2022-12-20T04:44:06;6.25;;;4.90;;
37411;SDS011;23278;52.110;6.050;2022-12-20T04:46:35;7.35;;;4.68;;
37411;SDS011;23278;52.110;6.050;2022-12-20T04:49:02;7.93;;;4.65;;
37411;SDS011;23278;52.110;6.050;2022-12-20T04:51:31;6.22;;;4.28;;
37411;SDS011;23278;52.110;6.050;2022-12-20T04:53:57;7.97;;;4.63;;
37411;SDS011;23278;52.110;6.050;2022-12-20T04:56:49;9.18;;;4.95;;
37411;SDS011;23278;52.110;6.050;2022-12-20T04:59:18;7.53;;;4.70;;
37411;SDS011;23278;52.110;6.050;2022-12-20T05:01:47;6.32;;;4.95;;
37411;SDS011;23278;52.110;6.050;2022-12-20T05:04:24;16.20;;;4.57;;
37411;SDS011;23278;52.110;6.050;2022-12-20T05:06:50;7.07;;;4.72;;
37411;SDS011;23278;52.110;6.050;2022-12-20T05:09:16;6.65;;;5.28;;
37411;SDS011;23278;52.110;6.050;2022-12-20T05:11:42;7.07;;;4.90;;
37411;SDS011;23278;52.110;6.050;2022-12-20T05:14:08;8.20;;;4.78;;
37411;SDS011;23278;52.110;6.050;2022-12-20T05:16:34;6.47;;;4.57;;
37411;SDS011;23278;52.110;6.050;2022-12-20T05:19:01;7.90;;;4.25;;
37411;SDS011;23278;52.110;6.050;2022-12-20T05:21:32;4.75;;;4.28;;
37411;SDS011;23278;52.110;6.050;2022-12-20T05:24:39;8.68;;;4.53;;
37411;SDS011;23278;52.110;6.050;2022-12-20T05:27:30;7.07;;;4.95;;
37411;SDS011;23278;52.110;6.050;2022-12-20T05:29:56;8.23;;;4.13;;
37411;SDS011;23278;52.110;6.050;2022-12-20T05:32:23;6.90;;;4.88;;
37411;SDS011;23278;52.110;6.050;2022-12-20T05:34:51;7.57;;;3.67;;
37411;SDS011;23278;52.110;6.050;2022-12-20T05:37:18;7.18;;;4.07;;
37411;SDS011;23278;52.110;6.050;2022-12-20T05:39:45;7.65;;;4.35;;
37411;SDS011;23278;52.110;6.050;2022-12-20T05:42:16;7.72;;;4.35;;
37411;SDS011;23278;52.110;6.050;2022-12-20T05:44:43;4.75;;;3.72;;
37411;SDS011;23278;52.110;6.050;2022-12-20T05:47:09;6.95;;;4.75;;
37411;SDS011;23278;52.110;6.050;2022-12-20T05:49:36;7.53;;;4.60;;
37411;SDS011;23278;52.110;6.050;2022-12-20T05:52:05;6.68;;;5.22;;
37411;SDS011;23278;52.110;6.050;2022-12-20T05:54:34;8.00;;;4.43;;
37411;SDS011;23278;52.110;6.050;2022-12-20T05:57:06;7.15;;;4.07;;
37411;SDS011;23278;52.110;6.050;2022-12-20T05:59:39;5.72;;;4.88;;
37411;SDS011;23278;52.110;6.050;2022-12-20T06:02:12;5.72;;;4.47;;
37411;SDS011;23278;52.110;6.050;2022-12-20T06:04:38;7.85;;;4.13;;
37411;SDS011;23278;52.110;6.050;2022-12-20T06:07:12;9.05;;;4.25;;
37411;SDS011;23278;52.110;6.050;2022-12-20T06:09:39;7.53;;;4.75;;
37411;SDS011;23278;52.110;6.050;2022-12-20T06:12:09;6.57;;;4.03;;
37411;SDS011;23278;52.110;6.050;2022-12-20T06:14:37;8.68;;;3.90;;
37411;SDS011;23278;52.110;6.050;2022-12-20T06:17:03;6.93;;;4.70;;
37411;SDS011;23278;52.110;6.050;2022-12-20T06:19:30;6.82;;;4.43;;
37411;SDS011;23278;52.110;6.050;2022-12-20T06:21:57;10.95;;;5.72;;
37411;SDS011;23278;52.110;6.050;2022-12-20T06:24:30;8.32;;;4.10;;
37411;SDS011;23278;52.110;6.050;2022-12-20T06:26:57;5.70;;;3.88;;
37411;SDS011;23278;52.110;6.050;2022-12-20T06:29:24;9.13;;;4.30;;
37411;SDS011;23278;52.110;6.050;2022-12-20T06:31:57;8.05;;;4.85;;
37411;SDS011;23278;52.110;6.050;2022-12-20T06:34:23;7.35;;;5.05;;
37411;SDS011;23278;52.110;6.050;2022-12-20T06:36:49;7.13;;;5.40;;
37411;SDS011;23278;52.110;6.050;2022-12-20T06:39:19;7.28;;;5.05;;
37411;SDS011;23278;52.110;6.050;2022-12-20T06:41:55;7.57;;;5.82;;
37411;SDS011;23278;52.110;6.050;2022-12-20T06:44:21;15.30;;;7.05;;
37411;SDS011;23278;52.110;6.050;2022-12-20T06:46:48;12.70;;;6.00;;
37411;SDS011;23278;52.110;6.050;2022-12-20T06:49:14;10.57;;;6.93;;
37411;SDS011;23278;52.110;6.050;2022-12-20T06:51:41;13.40;;;6.75;;
37411;SDS011;23278;52.110;6.050;2022-12-20T06:54:07;7.88;;;5.55;;
37411;SDS011;23278;52.110;6.050;2022-12-20T06:56:34;8.77;;;4.93;;
37411;SDS011;23278;52.110;6.050;2022-12-20T06:59:00;13.88;;;7.00;;
37411;SDS011;23278;52.110;6.050;2022-12-20T07:01:26;9.00;;;5.78;;
37411;SDS011;23278;52.110;6.050;2022-12-20T07:03:52;5.78;;;4.57;;
37411;SDS011;23278;52.110;6.050;2022-12-20T07:06:18;8.50;;;4.97;;
37411;SDS011;23278;52.110;6.050;2022-12-20T07:08:44;7.40;;;4.65;;
37411;SDS011;23278;52.110;6.050;2022-12-20T07:11:10;6.93;;;4.65;;
37411;SDS011;23278;52.110;6.050;2022-12-20T07:13:36;7.68;;;4.30;;
37411;SDS011;23278;52.110;6.050;2022-12-20T07:16:02;7.03;;;4.78;;
37411;SDS011;23278;52.110;6.050;2022-12-20T07:18:28;7.35;;;4.85;;
37411;SDS011;23278;52.110;6.050;2022-12-20T07:20:58;7.22;;;4.20;;
37411;SDS011;23278;52.110;6.050;2022-12-20T07:23:25;8.50;;;4.63;;
37411;SDS011;23278;52.110;6.050;2022-12-20T07:25:55;7.72;;;5.35;;
37411;SDS011;23278;52.110;6.050;2022-12-20T07:28:22;6.00;;;4.05;;
37411;SDS011;23278;52.110;6.050;2022-12-20T07:30:49;8.25;;;4.35;;
37411;SDS011;23278;52.110;6.050;2022-12-20T07:33:15;8.63;;;4.38;;
37411;SDS011;23278;52.110;6.050;2022-12-20T07:35:41;5.88;;;4.07;;
37411;SDS011;23278;52.110;6.050;2022-12-20T07:38:10;8.50;;;4.00;;
37411;SDS011;23278;52.110;6.050;2022-12-20T07:40:38;8.00;;;4.65;;
37411;SDS011;23278;52.110;6.050;2022-12-20T07:43:06;7.97;;;4.55;;
37411;SDS011;23278;52.110;6.050;2022-12-20T07:45:34;5.53;;;4.75;;
37411;SDS011;23278;52.110;6.050;2022-12-20T07:48:00;7.53;;;4.10;;
37411;SDS011;23278;52.110;6.050;2022-12-20T07:50:26;5.18;;;4.60;;
37411;SDS011;23278;52.110;6.050;2022-12-20T07:52:53;5.55;;;4.03;;
37411;SDS011;23278;52.110;6.050;2022-12-20T07:55:20;4.32;;;3.45;;
37411;SDS011;23278;52.110;6.050;2022-12-20T07:57:53;9.10;;;3.65;;
37411;SDS011;23278;52.110;6.050;2022-12-20T08:00:23;7.25;;;4.03;;
37411;SDS011;23278;52.110;6.050;2022-12-20T08:02:57;7.18;;;4.28;;
37411;SDS011;23278;52.110;6.050;2022-12-20T08:05:26;7.30;;;4.22;;
37411;SDS011;23278;52.110;6.050;2022-12-20T08:07:53;6.50;;;3.22;;
37411;SDS011;23278;52.110;6.050;2022-12-20T08:10:22;5.63;;;3.42;;
37411;SDS011;23278;52.110;6.050;2022-12-20T08:12:48;4.50;;;3.63;;
37411;SDS011;23278;52.110;6.050;2022-12-20T08:15:14;4.32;;;3.53;;
37411;SDS011;23278;52.110;6.050;2022-12-20T08:17:41;6.85;;;4.18;;
37411;SDS011;23278;52.110;6.050;2022-12-20T08:20:07;6.35;;;3.80;;
37411;SDS011;23278;52.110;6.050;2022-12-20T08:22:33;5.72;;;3.42;;
37411;SDS011;23278;52.110;6.050;2022-12-20T08:24:59;4.85;;;3.55;;
37411;SDS011;23278;52.110;6.050;2022-12-20T08:27:25;5.88;;;3.38;;
37411;SDS011;23278;52.110;6.050;2022-12-20T08:29:51;6.53;;;4.82;;
37411;SDS011;23278;52.110;6.050;2022-12-20T08:32:17;5.88;;;3.40;;
37411;SDS011;23278;52.110;6.050;2022-12-20T08:34:43;6.85;;;3.80;;
37411;SDS011;23278;52.110;6.050;2022-12-20T08:37:09;4.80;;;3.45;;
37411;SDS011;23278;52.110;6.050;2022-12-20T08:39:35;5.18;;;2.83;;
37411;SDS011;23278;52.110;6.050;2022-12-20T08:42:03;9.00;;;3.03;;
37411;SDS011;23278;52.110;6.050;2022-12-20T08:44:29;5.88;;;3.25;;
37411;SDS011;23278;52.110;6.050;2022-12-20T08:46:55;4.15;;;2.95;;
37411;SDS011;23278;52.110;6.050;2022-12-20T08:49:21;4.68;;;2.35;;
37411;SDS011;23278;52.110;6.050;2022-12-20T08:51:47;5.03;;;3.25;;
37411;SDS011;23278;52.110;6.050;2022-12-20T08:54:13;4.57;;;3.05;;
37411;SDS011;23278;52.110;6.050;2022-12-20T08:56:39;4.78;;;2.72;;
37411;SDS011;23278;52.110;6.050;2022-12-20T08:59:05;5.75;;;3.05;;
37411;SDS011;23278;52.110;6.050;2022-12-20T09:01:31;3.90;;;2.40;;
37411;SDS011;23278;52.110;6.050;2022-12-20T09:03:57;3.50;;;2.70;;
37411;SDS011;23278;52.110;6.050;2022-12-20T09:06:24;5.97;;;3.17;;
37411;SDS011;23278;52.110;6.050;2022-12-20T09:08:50;3.83;;;2.80;;
37411;SDS011;23278;52.110;6.050;2022-12-20T09:11:18;6.28;;;2.63;;
37411;SDS011;23278;52.110;6.050;2022-12-20T09:13:46;6.45;;;3.00;;
37411;SDS011;23278;52.110;6.050;2022-12-20T09:16:15;5.25;;;3.08;;
37411;SDS011;23278;52.110;6.050;2022-12-20T09:18:43;7.32;;;3.65;;
37411;SDS011;23278;52.110;6.050;2022-12-20T09:21:15;5.55;;;2.95;;
37411;SDS011;23278;52.110;6.050;2022-12-20T09:23:42;4.57;;;2.80;;
37411;SDS011;23278;52.110;6.050;2022-12-20T09:26:12;7.13;;;2.38;;
37411;SDS011;23278;52.110;6.050;2022-12-20T09:28:40;4.45;;;2.63;;
37411;SDS011;23278;52.110;6.050;2022-12-20T09:31:07;4.30;;;2.28;;
37411;SDS011;23278;52.110;6.050;2022-12-20T09:33:36;6.05;;;2.30;;
37411;SDS011;23278;52.110;6.050;2022-12-20T09:36:03;10.93;;;2.40;;
37411;SDS011;23278;52.110;6.050;2022-12-20T09:38:29;4.60;;;2.33;;
37411;SDS011;23278;52.110;6.050;2022-12-20T09:41:06;3.67;;;2.53;;
37411;SDS011;23278;52.110;6.050;2022-12-20T09:43:33;6.00;;;2.95;;
37411;SDS011;23278;52.110;6.050;2022-12-20T09:46:00;3.58;;;2.33;;
37411;SDS011;23278;52.110;6.050;2022-12-20T09:48:29;6.00;;;3.20;;
37411;SDS011;23278;52.110;6.050;2022-12-20T09:53:49;5.75;;;2.97;;
37411;SDS011;23278;52.110;6.050;2022-12-20T09:56:40;3.90;;;2.70;;
37411;SDS011;23278;52.110;6.050;2022-12-20T10:01:40;8.23;;;3.15;;
37411;SDS011;23278;52.110;6.050;2022-12-20T10:04:27;4.40;;;2.85;;
37411;SDS011;23278;52.110;6.050;2022-12-20T10:25:33;8.98;;;3.50;;
37411;SDS011;23278;52.110;6.050;2022-12-20T10:28:00;3.80;;;2.83;;
37411;SDS011;23278;52.110;6.050;2022-12-20T10:30:33;5.45;;;3.33;;
37411;SDS011;23278;52.110;6.050;2022-12-20T10:32:59;8.30;;;3.58;;
37411;SDS011;23278;52.110;6.050;2022-12-20T10:35:28;8.35;;;3.10;;
37411;SDS011;23278;52.110;6.050;2022-12-20T10:38:05;10.80;;;4.15;;
37411;SDS011;23278;52.110;6.050;2022-12-20T10:43:14;7.75;;;4.15;;
37411;SDS011;23278;52.110;6.050;2022-12-20T10:45:41;8.20;;;4.88;;
37411;SDS011;23278;52.110;6.050;2022-12-20T10:48:25;5.30;;;3.17;;
37411;SDS011;23278;52.110;6.050;2022-12-20T10:53:48;7.80;;;4.30;;
37411;SDS011;23278;52.110;6.050;2022-12-20T10:56:31;6.13;;;3.78;;
37411;SDS011;23278;52.110;6.050;2022-12-20T11:01:46;6.68;;;4.60;;
37411;SDS011;23278;52.110;6.050;2022-12-20T11:04:29;9.82;;;4.07;;
37411;SDS011;23278;52.110;6.050;2022-12-20T11:06:57;9.48;;;4.68;;
37411;SDS011;23278;52.110;6.050;2022-12-20T11:09:34;10.43;;;5.05;;
37411;SDS011;23278;52.110;6.050;2022-12-20T11:12:11;7.55;;;4.85;;
37411;SDS011;23278;52.110;6.050;2022-12-20T11:14:39;5.85;;;5.05;;
37411;SDS011;23278;52.110;6.050;2022-12-20T11:20:28;7.53;;;4.60;;
37411;SDS011;23278;52.110;6.050;2022-12-20T11:34:30;7.85;;;5.28;;
37411;SDS011;23278;52.110;6.050;2022-12-20T11:45:18;8.50;;;6.22;;
37411;SDS011;23278;52.110;6.050;2022-12-20T11:50:40;8.82;;;5.80;;
37411;SDS011;23278;52.110;6.050;2022-12-20T11:53:47;8.73;;;5.45;;
37411;SDS011;23278;52.110;6.050;2022-12-20T11:56:22;10.80;;;6.45;;
37411;SDS011;23278;52.110;6.050;2022-12-20T12:01:46;7.50;;;6.00;;
37411;SDS011;23278;52.110;6.050;2022-12-20T12:04:25;8.73;;;5.75;;
37411;SDS011;23278;52.110;6.050;2022-12-20T12:06:58;7.15;;;5.40;;
37411;SDS011;23278;52.110;6.050;2022-12-20T12:09:31;7.93;;;5.68;;
37411;SDS011;23278;52.110;6.050;2022-12-20T12:12:07;8.68;;;6.03;;
37411;SDS011;23278;52.110;6.050;2022-12-20T12:14:49;9.43;;;5.63;;
37411;SDS011;23278;52.110;6.050;2022-12-20T12:17:28;10.50;;;7.13;;
37411;SDS011;23278;52.110;6.050;2022-12-20T12:20:59;10.43;;;6.05;;
37411;SDS011;23278;52.110;6.050;2022-12-20T12:25:49;10.80;;;7.18;;
37411;SDS011;23278;52.110;6.050;2022-12-20T12:28:15;9.98;;;7.47;;
37411;SDS011;23278;52.110;6.050;2022-12-20T12:30:45;9.80;;;6.75;;
37411;SDS011;23278;52.110;6.050;2022-12-20T12:33:20;10.43;;;6.95;;
37411;SDS011;23278;52.110;6.050;2022-12-20T12:47:09;10.93;;;7.05;;
37411;SDS011;23278;52.110;6.050;2022-12-20T12:49:48;10.93;;;7.95;;
37411;SDS011;23278;52.110;6.050;2022-12-20T12:52:33;10.05;;;7.32;;
37411;SDS011;23278;52.110;6.050;2022-12-20T13:00:55;13.50;;;6.28;;
37411;SDS011;23278;52.110;6.050;2022-12-20T13:07:03;7.55;;;6.65;;
37411;SDS011;23278;52.110;6.050;2022-12-20T13:11:29;10.38;;;7.55;;
37411;SDS011;23278;52.110;6.050;2022-12-20T13:16:42;11.15;;;7.60;;
37411;SDS011;23278;52.110;6.050;2022-12-20T13:19:12;8.50;;;7.28;;
37411;SDS011;23278;52.110;6.050;2022-12-20T13:21:46;10.82;;;6.97;;
37411;SDS011;23278;52.110;6.050;2022-12-20T13:24:34;12.23;;;7.55;;
37411;SDS011;23278;52.110;6.050;2022-12-20T13:37:54;10.75;;;7.38;;
37411;SDS011;23278;52.110;6.050;2022-12-20T13:45:45;10.50;;;8.13;;
37411;SDS011;23278;52.110;6.050;2022-12-20T13:51:15;9.77;;;8.00;;
37411;SDS011;23278;52.110;6.050;2022-12-20T13:53:50;10.80;;;8.63;;
37411;SDS011;23278;52.110;6.050;2022-12-20T13:56:30;10.18;;;7.88;;
37411;SDS011;23278;52.110;6.050;2022-12-20T13:59:30;11.93;;;9.35;;
37411;SDS011;23278;52.110;6.050;2022-12-20T14:01:58;10.55;;;7.35;;
37411;SDS011;23278;52.110;6.050;2022-12-20T14:04:25;12.52;;;7.50;;
37411;SDS011;23278;52.110;6.050;2022-12-20T14:07:03;11.02;;;8.43;;
37411;SDS011;23278;52.110;6.050;2022-12-20T14:09:33;11.75;;;8.23;;
37411;SDS011;23278;52.110;6.050;2022-12-20T14:12:01;10.82;;;8.20;;
37411;SDS011;23278;52.110;6.050;2022-12-20T14:14:29;9.02;;;8.13;;
37411;SDS011;23278;52.110;6.050;2022-12-20T14:16:55;9.25;;;8.00;;
37411;SDS011;23278;52.110;6.050;2022-12-20T14:19:38;10.32;;;8.25;;
37411;SDS011;23278;52.110;6.050;2022-12-20T14:22:04;10.20;;;8.00;;
37411;SDS011;23278;52.110;6.050;2022-12-20T14:24:30;9.27;;;8.20;;
37411;SDS011;23278;52.110;6.050;2022-12-20T14:26:56;14.48;;;9.40;;
37411;SDS011;23278;52.110;6.050;2022-12-20T14:29:26;10.45;;;8.77;;
37411;SDS011;23278;52.110;6.050;2022-12-20T14:31:54;10.25;;;9.07;;
37411;SDS011;23278;52.110;6.050;2022-12-20T14:34:30;11.25;;;9.50;;
37411;SDS011;23278;52.110;6.050;2022-12-20T14:40:38;13.55;;;9.10;;
37411;SDS011;23278;52.110;6.050;2022-12-20T14:42:42;15.73;;;9.07;;
37411;SDS011;23278;52.110;6.050;2022-12-20T14:47:48;10.98;;;9.27;;
37411;SDS011;23278;52.110;6.050;2022-12-20T14:50:36;12.02;;;10.40;;
37411;SDS011;23278;52.110;6.050;2022-12-20T14:53:14;11.88;;;9.52;;
37411;SDS011;23278;52.110;6.050;2022-12-20T14:55:49;11.20;;;9.10;;
37411;SDS011;23278;52.110;6.050;2022-12-20T14:58:22;9.80;;;8.68;;
37411;SDS011;23278;52.110;6.050;2022-12-20T15:03:52;10.18;;;7.65;;
37411;SDS011;23278;52.110;6.050;2022-12-20T15:06:40;11.00;;;9.45;;
37411;SDS011;23278;52.110;6.050;2022-12-20T15:09:09;12.70;;;9.48;;
37411;SDS011;23278;52.110;6.050;2022-12-20T15:11:35;11.10;;;8.77;;
37411;SDS011;23278;52.110;6.050;2022-12-20T15:14:04;10.48;;;9.32;;
37411;SDS011;23278;52.110;6.050;2022-12-20T15:16:49;11.63;;;9.65;;
37411;SDS011;23278;52.110;6.050;2022-12-20T15:19:14;13.75;;;10.75;;
37411;SDS011;23278;52.110;6.050;2022-12-20T15:21:41;11.30;;;9.95;;
37411;SDS011;23278;52.110;6.050;2022-12-20T15:24:17;10.82;;;9.73;;
37411;SDS011;23278;52.110;6.050;2022-12-20T15:26:47;11.07;;;9.65;;
37411;SDS011;23278;52.110;6.050;2022-12-20T15:29:14;11.40;;;9.18;;
37411;SDS011;23278;52.110;6.050;2022-12-20T15:31:44;11.07;;;9.48;;
37411;SDS011;23278;52.110;6.050;2022-12-20T15:34:12;11.55;;;10.35;;
37411;SDS011;23278;52.110;6.050;2022-12-20T15:36:52;11.27;;;9.32;;
37411;SDS011;23278;52.110;6.050;2022-12-20T15:39:17;12.13;;;9.98;;
37411;SDS011;23278;52.110;6.050;2022-12-20T15:41:46;9.38;;;7.65;;
37411;SDS011;23278;52.110;6.050;2022-12-20T15:44:15;13.48;;;9.32;;
37411;SDS011;23278;52.110;6.050;2022-12-20T15:46:44;14.80;;;11.57;;
37411;SDS011;23278;52.110;6.050;2022-12-20T15:49:17;11.98;;;10.18;;
37411;SDS011;23278;52.110;6.050;2022-12-20T15:51:46;10.27;;;9.18;;
37411;SDS011;23278;52.110;6.050;2022-12-20T15:54:34;12.48;;;9.80;;
37411;SDS011;23278;52.110;6.050;2022-12-20T15:57:05;12.80;;;11.15;;
37411;SDS011;23278;52.110;6.050;2022-12-20T15:59:31;15.07;;;12.85;;
37411;SDS011;23278;52.110;6.050;2022-12-20T16:01:58;13.68;;;10.80;;
37411;SDS011;23278;52.110;6.050;2022-12-20T16:04:24;11.52;;;10.30;;
37411;SDS011;23278;52.110;6.050;2022-12-20T16:06:50;13.25;;;9.50;;
37411;SDS011;23278;52.110;6.050;2022-12-20T16:09:19;13.68;;;11.32;;
37411;SDS011;23278;52.110;6.050;2022-12-20T16:11:45;14.40;;;10.93;;
37411;SDS011;23278;52.110;6.050;2022-12-20T16:14:15;15.20;;;12.07;;
37411;SDS011;23278;52.110;6.050;2022-12-20T16:16:43;13.20;;;11.82;;
37411;SDS011;23278;52.110;6.050;2022-12-20T16:19:09;16.88;;;12.35;;
37411;SDS011;23278;52.110;6.050;2022-12-20T16:21:41;16.20;;;12.30;;
37411;SDS011;23278;52.110;6.050;2022-12-20T16:24:14;18.52;;;13.27;;
37411;SDS011;23278;52.110;6.050;2022-12-20T16:26:41;14.80;;;11.50;;
37411;SDS011;23278;52.110;6.050;2022-12-20T16:29:07;16.70;;;12.23;;
37411;SDS011;23278;52.110;6.050;2022-12-20T16:31:34;15.35;;;12.80;;
37411;SDS011;23278;52.110;6.050;2022-12-20T16:34:02;14.00;;;11.30;;
37411;SDS011;23278;52.110;6.050;2022-12-20T16:36:30;15.65;;;13.00;;
37411;SDS011;23278;52.110;6.050;2022-12-20T16:38:57;15.98;;;12.20;;
37411;SDS011;23278;52.110;6.050;2022-12-20T16:41:24;18.98;;;13.88;;
37411;SDS011;23278;52.110;6.050;2022-12-20T16:43:52;23.45;;;13.13;;
37411;SDS011;23278;52.110;6.050;2022-12-20T16:46:20;14.82;;;12.23;;
37411;SDS011;23278;52.110;6.050;2022-12-20T16:48:48;14.38;;;12.88;;
37411;SDS011;23278;52.110;6.050;2022-12-20T16:51:47;15.30;;;11.30;;
37411;SDS011;23278;52.110;6.050;2022-12-20T16:54:17;18.48;;;12.98;;
37411;SDS011;23278;52.110;6.050;2022-12-20T16:56:45;17.83;;;11.90;;
37411;SDS011;23278;52.110;6.050;2022-12-20T16:59:12;21.05;;;12.98;;
37411;SDS011;23278;52.110;6.050;2022-12-20T17:01:38;18.45;;;13.07;;
37411;SDS011;23278;52.110;6.050;2022-12-20T17:04:08;19.55;;;14.35;;
37411;SDS011;23278;52.110;6.050;2022-12-20T17:06:40;15.43;;;11.43;;